Time;durP1;ratioP1;P1;durP2;ratioP2;P2;SDS_P1;SDS_P2;PMS_P1;PMS_P2;Temp;Humidity;BMP_temperature;BMP_pressure;BME280_temperature;BME280_humidity;BME280_pressure;Samples;Min_cycle;Max_cycle;Signal;HPM_P1;HPM_P2
2021/03/31 08:03:58;;;;;;;7.73;5.43;;;;;;;10.43;100.00;97423.06;4993975;28;20236;-95
2021/03/31 08:06:30;;;;;;;4.67;4.27;;;;;;;10.39;100.00;97436.56;4997097;28;20201;-94
2021/03/31 08:09:01;;;;;;;3.93;3.60;;;;;;;10.17;100.00;97421.75;4996653;28;20201;-95
2021/03/31 08:15:01;;;;;;;5.83;3.80;;;;;;;11.14;100.00;97422.28;5031089;28;20227;-94
2021/03/31 08:20:56;;;;;;;4.50;4.10;;;;;;;11.47;100.00;97413.22;5017309;28;20209;-96
2021/03/31 08:23:47;;;;;;;5.30;4.40;;;;;;;11.11;100.00;97401.47;5013887;28;20206;-96
2021/03/31 08:32:10;;;;;;;4.80;4.37;;;;;;;11.28;100.00;97397.38;5047310;22;20227;-94
2021/03/31 08:38:00;;;;;;;7.23;4.53;;;;;;;12.74;100.00;97392.84;5016873;28;20227;-96
2021/03/31 08:40:41;;;;;;;5.07;4.50;;;;;;;12.46;100.00;97384.91;5016255;28;20223;-93
2021/03/31 08:43:38;;;;;;;5.33;4.83;;;;;;;11.95;100.00;97391.38;5017535;28;20195;-96
2021/03/31 08:46:36;;;;;;;9.33;4.00;;;;;;;12.96;100.00;97389.03;4956842;29;20213;-93
2021/03/31 08:49:04;;;;;;;5.67;4.47;;;;;;;13.08;100.00;97387.84;4940509;29;20201;-96
2021/03/31 08:55:22;;;;;;;6.13;4.60;;;;;;;13.61;100.00;97388.94;4956795;29;20706;-94
2021/03/31 08:57:49;;;;;;;8.50;4.80;;;;;;;13.59;100.00;97381.19;4938799;29;20822;-94
2021/03/31 09:00:17;;;;;;;6.77;4.20;;;;;;;13.32;100.00;97376.78;4955989;29;20239;-95
2021/03/31 09:03:04;;;;;;;4.33;3.93;;;;;;;12.78;100.00;97363.44;4956050;29;20290;-94
2021/03/31 09:05:31;;;;;;;5.20;4.80;;;;;;;12.68;100.00;97374.97;4956250;29;20201;-93
2021/03/31 09:08:01;;;;;;;4.97;4.20;;;;;;;13.12;100.00;97370.75;4956331;29;20625;-94
2021/03/31 09:10:51;;;;;;;4.17;3.77;;;;;;;14.01;100.00;97362.06;4956272;29;20233;-93
2021/03/31 09:13:39;;;;;;;9.60;6.27;;;;;;;14.60;100.00;97357.88;4956329;29;20674;-93
2021/03/31 09:16:11;;;;;;;4.27;3.80;;;;;;;14.66;100.00;97357.25;4956253;29;20768;-93
2021/03/31 09:18:42;;;;;;;5.37;4.50;;;;;;;14.88;100.00;97345.25;4955963;29;20776;-95
2021/03/31 09:21:09;;;;;;;4.07;3.33;;;;;;;13.62;100.00;97358.94;4956133;29;20318;-94
2021/03/31 09:23:37;;;;;;;4.63;3.87;;;;;;;14.14;100.00;97349.28;5000858;28;20223;-93
2021/03/31 09:26:05;;;;;;;4.87;4.23;;;;;;;13.18;100.00;97351.69;5015855;28;20207;-95
2021/03/31 09:28:33;;;;;;;3.83;3.50;;;;;;;13.31;100.00;97343.44;5015820;28;20219;-94
2021/03/31 09:31:07;;;;;;;5.53;4.07;;;;;;;14.02;100.00;97346.03;5015450;28;20264;-95
2021/03/31 09:33:35;;;;;;;5.13;4.00;;;;;;;14.52;100.00;97333.19;5015756;28;20195;-93
2021/03/31 09:36:16;;;;;;;7.87;4.23;;;;;;;13.65;100.00;97334.84;5015326;28;20661;-94
2021/03/31 09:38:53;;;;;;;4.33;3.93;;;;;;;14.44;100.00;97324.19;5015414;28;20234;-93
2021/03/31 09:41:37;;;;;;;5.90;4.37;;;;;;;13.94;100.00;97311.63;5014973;28;20210;-96
2021/03/31 09:44:05;;;;;;;6.27;5.53;;;;;;;14.69;100.00;97313.75;5015874;28;20214;-93
2021/03/31 09:46:46;;;;;;;;;;;;;;;;;;;;;
2021/03/31 09:49:17;;;;;;;3.67;3.30;;;;;;;15.13;100.00;97306.44;5015318;28;20198;-94
2021/03/31 09:51:48;;;;;;;4.73;4.33;;;;;;;14.64;100.00;97310.75;5015332;28;20207;-94
2021/03/31 09:54:15;;;;;;;4.20;3.80;;;;;;;15.68;100.00;97308.56;5015341;28;20222;-94
2021/03/31 09:56:58;;;;;;;5.37;4.07;;;;;;;15.76;100.00;97301.59;5015229;28;20334;-94
2021/03/31 09:59:26;;;;;;;4.07;3.67;;;;;;;15.03;100.00;97297.00;5014738;28;20245;-93
2021/03/31 10:01:54;;;;;;;4.10;3.70;;;;;;;14.74;100.00;97288.47;5015161;28;20199;-93
2021/03/31 10:04:21;;;;;;;3.93;3.53;;;;;;;15.49;100.00;97292.97;5015083;28;20254;-90
2021/03/31 10:07:20;;;;;;;7.57;4.93;;;;;;;15.93;100.00;97282.03;5014962;28;20204;-93
2021/03/31 10:09:49;;;;;;;3.20;2.87;;;;;;;16.28;100.00;97287.94;5015283;28;20255;-93
2021/03/31 10:12:22;;;;;;;3.63;3.23;;;;;;;16.48;100.00;97273.31;5016362;28;20203;-93
2021/03/31 10:14:52;;;;;;;5.83;3.80;;;;;;;15.93;100.00;97264.34;5015894;28;20192;-93
2021/03/31 10:17:21;;;;;;;5.07;4.07;;;;;;;15.83;100.00;97270.78;5014752;28;20219;-93
2021/03/31 10:19:49;;;;;;;6.20;4.10;;;;;;;15.21;100.00;97272.06;5014663;28;20319;-94
2021/03/31 10:22:16;;;;;;;3.97;3.57;;;;;;;15.22;100.00;97272.88;5014520;28;20193;-94
2021/03/31 10:24:45;;;;;;;4.83;3.97;;;;;;;15.59;100.00;97263.66;5014867;28;20263;-93
2021/03/31 10:27:14;;;;;;;6.73;4.23;;;;;;;15.49;100.00;97255.03;5015143;28;20244;-93
2021/03/31 10:29:50;;;;;;;7.23;3.47;;;;;;;15.46;100.00;97259.66;5014551;28;20367;-93
2021/03/31 10:32:19;;;;;;;4.77;3.90;;;;;;;16.09;100.00;97257.34;4995108;28;20181;-93
2021/03/31 10:34:47;;;;;;;3.83;3.30;;;;;;;15.77;100.00;97260.88;4995159;28;20202;-93
2021/03/31 10:37:25;;;;;;;5.83;3.80;;;;;;;16.04;100.00;97246.41;4995035;28;20208;-92
2021/03/31 10:48:39;;;;;;;4.27;3.90;;;;;;;14.96;100.00;97230.63;4994817;28;20274;-92
2021/03/31 10:51:12;;;;;;;4.03;3.73;;;;;;;15.25;100.00;97224.91;4994677;28;20208;-94
2021/03/31 10:53:41;;;;;;;5.77;4.47;;;;;;;15.61;100.00;97212.13;4994547;28;20201;-94
2021/03/31 10:56:09;;;;;;;4.00;3.53;;;;;;;15.01;100.00;97223.03;4994555;28;20211;-93
2021/03/31 10:58:35;;;;;;;5.50;3.97;;;;;;;15.34;100.00;97218.59;4994551;28;20652;-93
2021/03/31 11:01:04;;;;;;;4.10;3.70;;;;;;;15.04;100.00;97217.44;4995375;28;20210;-93
2021/03/31 11:03:30;;;;;;;3.50;3.20;;;;;;;15.19;100.00;97209.66;4994381;28;20250;-94
2021/03/31 11:05:57;;;;;;;7.50;3.43;;;;;;;15.00;100.00;97194.91;4994175;28;20200;-92
2021/03/31 11:08:24;;;;;;;4.30;3.90;;;;;;;14.70;100.00;97199.81;4994347;28;20200;-93
2021/03/31 11:10:52;;;;;;;5.73;4.30;;;;;;;14.73;100.00;97202.16;4994256;28;20219;-93
2021/03/31 11:13:19;;;;;;;5.67;3.00;;;;;;;15.59;100.00;97194.75;4994206;28;20215;-94
2021/03/31 11:15:46;;;;;;;6.70;3.33;;;;;;;15.60;100.00;97191.13;4994190;28;20188;-91
2021/03/31 11:18:19;;;;;;;6.17;3.70;;;;;;;14.60;100.00;97188.53;4994468;28;20726;-94
2021/03/31 11:21:01;;;;;;;4.50;3.70;;;;;;;15.41;100.00;97197.56;4994069;28;20258;-93
2021/03/31 11:26:13;;;;;;;4.03;3.40;;;;;;;15.87;100.00;97182.00;4994154;28;20712;-93
2021/03/31 11:28:42;;;;;;;3.83;3.47;;;;;;;16.35;100.00;97175.69;4993744;28;20290;-92
2021/03/31 11:31:09;;;;;;;5.33;4.40;;;;;;;16.60;100.00;97179.06;5004668;28;20232;-93
2021/03/31 11:33:43;;;;;;;6.43;3.10;;;;;;;16.54;100.00;97181.56;5013828;28;20589;-93
2021/03/31 11:36:11;;;;;;;6.10;3.83;;;;;;;16.26;100.00;97183.84;5013709;28;20560;-94
2021/03/31 11:38:38;;;;;;;4.00;3.60;;;;;;;16.03;100.00;97181.09;5013333;28;20650;-93
2021/03/31 11:41:07;;;;;;;5.07;3.80;;;;;;;16.07;100.00;97177.09;5013668;28;20721;-92
2021/03/31 11:43:34;;;;;;;3.47;3.07;;;;;;;16.02;100.00;97166.19;5013303;28;20235;-93
2021/03/31 11:46:01;;;;;;;3.67;3.37;;;;;;;16.31;100.00;97160.28;5013577;28;20205;-92
2021/03/31 11:48:27;;;;;;;4.50;3.73;;;;;;;16.68;100.00;97154.28;5013517;28;20192;-92
2021/03/31 11:50:55;;;;;;;5.23;3.87;;;;;;;15.73;100.00;97151.72;5013494;28;20190;-93
2021/03/31 11:53:28;;;;;;;4.57;3.50;;;;;;;15.52;100.00;97140.75;5013347;28;20259;-93
2021/03/31 11:55:55;;;;;;;4.23;3.67;;;;;;;15.95;100.00;97147.50;5013335;28;20653;-93
2021/03/31 11:58:22;;;;;;;4.97;3.87;;;;;;;16.27;100.00;97135.09;5013245;28;20287;-92
2021/03/31 12:00:49;;;;;;;4.93;4.23;;;;;;;16.03;100.00;97150.09;5013114;28;20205;-93
2021/03/31 12:03:18;;;;;;;6.40;4.77;;;;;;;16.56;100.00;97129.16;5013341;28;20204;-93
2021/03/31 12:05:44;;;;;;;5.30;3.30;;;;;;;16.32;100.00;97138.06;5017296;28;20273;-92
2021/03/31 12:08:12;;;;;;;6.80;5.27;;;;;;;16.43;100.00;97126.25;5017208;28;20203;-93
2021/03/31 12:10:39;;;;;;;3.73;3.43;;;;;;;16.46;100.00;97123.25;5017335;28;20263;-93
2021/03/31 12:13:06;;;;;;;6.87;4.50;;;;;;;16.67;100.00;97126.09;5017309;28;20642;-93
2021/03/31 12:15:33;;;;;;;6.47;3.87;;;;;;;16.39;100.00;97115.97;5017030;28;20593;-92
2021/03/31 12:18:00;;;;;;;3.30;3.00;;;;;;;16.36;100.00;97113.66;5016949;28;20196;-92
2021/03/31 12:20:27;;;;;;;3.87;3.57;;;;;;;16.50;100.00;97111.28;5016637;28;20651;-92
2021/03/31 12:22:54;;;;;;;5.83;3.70;;;;;;;16.85;100.00;97107.25;5017023;28;20281;-92
2021/03/31 12:25:22;;;;;;;4.47;4.10;;;;;;;17.15;100.00;97102.88;5016825;28;20214;-92
2021/03/31 12:27:52;;;;;;;4.43;4.03;;;;;;;16.03;100.00;97096.25;5017175;28;20292;-92
2021/03/31 12:30:21;;;;;;;5.13;4.00;;;;;;;15.35;100.00;97098.44;5016483;28;20737;-93
2021/03/31 12:32:48;;;;;;;4.50;3.53;;;;;;;16.05;100.00;97092.44;5016584;28;20280;-93
2021/03/31 12:35:15;;;;;;;5.10;4.10;;;;;;;16.16;100.00;97080.63;5016844;28;20206;-92
2021/03/31 12:37:42;;;;;;;3.80;3.47;;;;;;;16.84;100.00;97079.06;5016781;28;20206;-93
2021/03/31 12:40:10;;;;;;;6.30;5.13;;;;;;;16.69;100.00;97076.31;5016400;28;20230;-91
2021/03/31 12:42:39;;;;;;;7.20;4.03;;;;;;;16.38;100.00;97079.00;5016666;28;20209;-93
2021/03/31 12:45:07;;;;;;;6.20;3.70;;;;;;;15.96;100.00;97077.56;5016503;28;20213;-92
2021/03/31 12:47:34;;;;;;;3.83;3.53;;;;;;;16.33;100.00;97066.25;5016556;28;20198;-93
2021/03/31 12:50:01;;;;;;;4.90;4.23;;;;;;;16.15;100.00;97073.66;5016747;28;20689;-92
2021/03/31 12:52:31;;;;;;;4.37;3.97;;;;;;;15.54;100.00;97069.91;5016245;28;20200;-92
2021/03/31 12:55:01;;;;;;;3.80;3.50;;;;;;;16.07;100.00;97073.69;5016315;28;20213;-91
2021/03/31 12:57:28;;;;;;;5.07;3.93;;;;;;;16.38;100.00;97063.06;5016618;28;20201;-92
2021/03/31 12:59:57;;;;;;;6.97;4.00;;;;;;;16.16;100.00;97065.53;5016245;28;20230;-91
2021/03/31 13:02:24;;;;;;;4.70;3.53;;;;;;;16.32;100.00;97058.50;5016239;28;20201;-93
2021/03/31 13:04:52;;;;;;;3.70;3.40;;;;;;;16.46;100.00;97054.25;5016585;28;20697;-92
2021/03/31 13:07:20;;;;;;;7.90;3.97;;;;;;;16.60;100.00;97056.97;5016531;28;20280;-92
2021/03/31 13:09:47;;;;;;;3.20;2.90;;;;;;;16.54;100.00;97048.88;5016121;28;20257;-92
2021/03/31 13:12:21;;;;;;;3.63;3.33;;;;;;;16.46;100.00;97039.16;5016147;28;20327;-94
2021/03/31 13:15:15;;;;;;;3.90;3.47;;;;;;;16.36;100.00;97047.34;5016005;28;20202;-92
2021/03/31 13:17:57;;;;;;;4.47;4.07;;;;;;;16.44;100.00;97035.84;5015880;28;20211;-92
2021/03/31 13:23:10;;;;;;;5.00;4.50;;;;;;;16.42;100.00;97032.56;5016169;28;20182;-92
2021/03/31 13:25:39;;;;;;;5.10;3.80;;;;;;;16.79;100.00;97028.31;5015860;28;20643;-93
2021/03/31 13:28:36;;;;;;;8.60;5.20;;;;;;;16.84;100.00;97026.78;5015913;28;20661;-93
2021/03/31 13:31:04;;;;;;;4.10;3.80;;;;;;;16.28;100.00;97028.84;5015553;28;20233;-93
2021/03/31 13:33:35;;;;;;;3.67;3.37;;;;;;;16.61;100.00;97015.31;5015657;28;20265;-92
2021/03/31 13:36:09;;;;;;;3.83;3.50;;;;;;;16.96;100.00;97015.72;5015940;28;20199;-92
2021/03/31 13:38:46;;;;;;;5.33;4.47;;;;;;;16.83;100.00;97011.88;5015776;28;20294;-92
2021/03/31 13:41:13;;;;;;;6.93;4.13;;;;;;;16.75;100.00;97017.22;5015131;28;20201;-92
2021/03/31 13:43:40;;;;;;;5.07;4.57;;;;;;;16.43;100.00;97001.53;5015368;28;20210;-92
2021/03/31 13:46:07;;;;;;;15.63;12.17;;;;;;;16.38;100.00;97018.81;5015935;28;20206;-91
2021/03/31 13:48:37;;;;;;;40.87;23.40;;;;;;;16.43;100.00;97004.19;5015440;28;20640;-92
2021/03/31 13:51:08;;;;;;;17.13;11.60;;;;;;;15.70;100.00;97011.59;5015613;28;20201;-92
2021/03/31 13:53:36;;;;;;;9.90;7.63;;;;;;;15.90;100.00;97007.50;5015280;28;20197;-92
2021/03/31 13:56:06;;;;;;;6.47;4.43;;;;;;;15.93;100.00;97001.88;5015149;28;20210;-92
2021/03/31 13:58:33;;;;;;;5.57;5.07;;;;;;;15.84;100.00;96986.19;5015557;28;20658;-92
2021/03/31 14:01:00;;;;;;;6.47;5.87;;;;;;;16.08;100.00;96987.84;5015323;28;20250;-93
2021/03/31 14:03:27;;;;;;;5.80;5.27;;;;;;;16.02;100.00;96988.56;5014918;28;20233;-91
2021/03/31 14:05:54;;;;;;;5.63;5.13;;;;;;;15.82;100.00;96988.16;5014983;28;20206;-92
2021/03/31 14:08:21;;;;;;;9.70;4.90;;;;;;;15.17;100.00;96997.16;5014849;28;20227;-93
2021/03/31 14:10:50;;;;;;;5.90;5.10;;;;;;;15.14;100.00;96995.69;5014909;28;20288;-92
2021/03/31 14:13:17;;;;;;;5.83;5.33;;;;;;;15.09;100.00;96991.88;5015356;28;20581;-92
2021/03/31 14:15:44;;;;;;;11.27;8.13;;;;;;;15.16;100.00;96991.03;5014856;28;20629;-92
2021/03/31 14:18:13;;;;;;;11.77;9.33;;;;;;;15.06;100.00;96982.44;5014755;28;20239;-92
2021/03/31 14:20:40;;;;;;;26.70;19.13;;;;;;;14.82;100.00;96988.59;5014427;28;20225;-93
2021/03/31 14:23:08;;;;;;;12.63;10.60;;;;;;;14.62;100.00;96980.22;5014710;28;20199;-92
2021/03/31 14:25:34;;;;;;;4.73;4.27;;;;;;;14.40;100.00;96976.38;5014916;28;20616;-93
2021/03/31 14:28:01;;;;;;;5.93;5.33;;;;;;;14.59;100.00;96979.72;5014231;28;20192;-92
2021/03/31 14:30:28;;;;;;;6.67;5.80;;;;;;;14.59;100.00;96971.78;5014451;28;20263;-92
2021/03/31 14:32:55;;;;;;;10.63;8.60;;;;;;;14.93;100.00;96985.63;5014649;28;20286;-92
2021/03/31 14:35:22;;;;;;;21.43;19.10;;;;;;;14.67;100.00;96977.06;5014481;28;20290;-93
2021/03/31 14:37:49;;;;;;;8.73;7.93;;;;;;;14.88;100.00;96982.66;5014046;28;20200;-94
2021/03/31 14:40:17;;;;;;;6.60;4.67;;;;;;;14.75;100.00;96974.41;5014182;28;20314;-93
2021/03/31 14:42:44;;;;;;;4.67;4.20;;;;;;;14.26;100.00;96971.75;5013968;28;20676;-92
2021/03/31 14:45:12;;;;;;;7.57;6.87;;;;;;;14.15;100.00;96977.34;5010840;28;20199;-89
2021/03/31 14:47:39;;;;;;;6.40;5.90;;;;;;;14.25;100.00;96973.56;5013439;28;20664;-84
2021/03/31 14:50:10;;;;;;;11.73;8.47;;;;;;;14.14;100.00;96976.53;5012679;28;20713;-86
2021/03/31 15:00:53;;;;;;;7.13;6.30;;;;;;;13.86;100.00;96972.53;5013908;28;20211;-89
2021/03/31 15:03:20;;;;;;;6.27;4.63;;;;;;;13.49;100.00;96979.00;5013945;28;20297;-90
2021/03/31 15:05:47;;;;;;;7.13;5.93;;;;;;;13.42;100.00;96978.00;5013830;28;20286;-90
2021/03/31 15:08:14;;;;;;;6.27;5.63;;;;;;;13.26;100.00;96976.09;5013860;28;20196;-89
2021/03/31 15:10:42;;;;;;;6.20;5.67;;;;;;;13.44;100.00;96968.94;5013645;28;20281;-90
2021/03/31 15:13:09;;;;;;;6.60;4.90;;;;;;;13.35;100.00;96964.59;5013757;28;20209;-88
2021/03/31 15:15:36;;;;;;;6.97;5.47;;;;;;;13.18;100.00;96966.28;5013546;28;20257;-90
2021/03/31 15:18:03;;;;;;;9.30;6.17;;;;;;;13.15;100.00;96965.78;5014154;28;20705;-89
2021/03/31 15:20:40;;;;;;;4.10;3.67;;;;;;;12.87;100.00;96967.78;5013469;28;20229;-89
2021/03/31 15:23:10;;;;;;;5.63;4.70;;;;;;;12.97;100.00;96961.41;5013662;28;20223;-91
2021/03/31 15:25:36;;;;;;;5.83;4.10;;;;;;;12.80;100.00;96962.28;5013831;28;20215;-90
2021/03/31 15:28:05;;;;;;;4.20;3.63;;;;;;;12.44;100.00;96966.84;5013744;28;20654;-91
2021/03/31 15:30:32;;;;;;;4.10;3.70;;;;;;;12.68;100.00;96967.00;5013341;28;20317;-90
2021/03/31 15:32:59;;;;;;;3.80;3.50;;;;;;;12.68;100.00;96964.38;5013440;28;20184;-91
2021/03/31 15:35:26;;;;;;;6.33;3.80;;;;;;;12.57;100.00;96961.97;5013428;28;20269;-91
2021/03/31 15:37:53;;;;;;;4.53;4.13;;;;;;;12.41;100.00;96960.03;5013285;28;20230;-91
2021/03/31 15:40:20;;;;;;;5.67;4.67;;;;;;;12.36;100.00;96962.28;5012474;28;20761;-91
2021/03/31 15:42:47;;;;;;;6.57;4.13;;;;;;;12.29;100.00;96964.72;5013094;28;20290;-91
2021/03/31 15:45:15;;;;;;;4.50;4.10;;;;;;;12.29;100.00;96964.72;5013127;28;20195;-90
2021/03/31 15:47:44;;;;;;;4.57;4.20;;;;;;;12.09;100.00;96964.06;5013188;28;20311;-91
2021/03/31 15:50:12;;;;;;;4.27;3.87;;;;;;;12.13;100.00;96961.97;5012978;28;20198;-92
2021/03/31 15:52:39;;;;;;;5.77;4.10;;;;;;;12.09;100.00;96958.81;5013121;28;20657;-91
2021/03/31 15:55:07;;;;;;;4.03;3.73;;;;;;;11.82;100.00;96962.28;5013374;28;20230;-91
2021/03/31 15:57:33;;;;;;;3.87;3.47;;;;;;;11.96;100.00;96966.25;5013594;28;20202;-90
2021/03/31 16:00:00;;;;;;;5.07;4.57;;;;;;;12.05;100.00;96957.44;5013467;28;20310;-91
2021/03/31 16:02:28;;;;;;;6.13;5.47;;;;;;;11.92;100.00;96956.16;5013029;28;20197;-92
2021/03/31 16:04:56;;;;;;;5.17;4.67;;;;;;;11.92;100.00;96958.81;5013308;28;20591;-91
2021/03/31 16:07:32;;;;;;;6.33;5.20;;;;;;;11.78;100.00;96957.47;5012786;28;20202;-91
2021/03/31 16:10:00;;;;;;;6.77;5.57;;;;;;;11.82;100.00;96949.13;5013065;28;20189;-91
2021/03/31 16:12:28;;;;;;;5.37;4.83;;;;;;;11.61;100.00;96959.13;5012194;28;20664;-91
2021/03/31 16:14:56;;;;;;;6.77;6.00;;;;;;;11.56;100.00;96958.72;5012626;28;20293;-92
2021/03/31 16:17:23;;;;;;;4.17;3.77;;;;;;;11.53;100.00;96954.56;5012693;28;20199;-91
2021/03/31 16:19:52;;;;;;;5.97;3.90;;;;;;;11.29;100.00;96956.91;5013351;28;20233;-91
2021/03/31 16:22:19;;;;;;;5.83;4.30;;;;;;;11.51;100.00;96951.25;5012927;28;20296;-91
2021/03/31 16:24:46;;;;;;;4.50;4.03;;;;;;;11.39;100.00;96955.06;5012857;28;20223;-92
2021/03/31 16:27:13;;;;;;;6.30;4.43;;;;;;;11.30;100.00;96953.31;5012939;28;20619;-91
2021/03/31 16:29:54;;;;;;;4.20;3.60;;;;;;;11.27;100.00;96961.50;5013016;28;20294;-91
2021/03/31 16:32:21;;;;;;;4.07;3.77;;;;;;;11.10;100.00;96953.41;5013163;28;20195;-91
2021/03/31 16:34:47;;;;;;;6.43;4.40;;;;;;;11.18;100.00;96957.94;5012757;28;20200;-91
2021/03/31 16:37:15;;;;;;;4.30;3.90;;;;;;;11.24;100.00;96953.91;5013821;28;20282;-92
2021/03/31 16:39:42;;;;;;;4.07;3.70;;;;;;;11.18;100.00;96958.75;5012612;28;20219;-91
2021/03/31 16:42:10;;;;;;;3.70;3.40;;;;;;;11.27;100.00;96953.63;5012979;28;20678;-92
2021/03/31 16:44:37;;;;;;;3.30;3.10;;;;;;;10.99;100.00;96956.22;5012815;28;20197;-91
2021/03/31 16:47:05;;;;;;;6.77;4.03;;;;;;;11.15;100.00;96953.81;5012673;28;20238;-90
2021/03/31 16:49:33;;;;;;;4.07;3.70;;;;;;;11.18;100.00;96956.13;5012916;28;20227;-92
2021/03/31 16:52:00;;;;;;;4.20;3.80;;;;;;;11.06;100.00;96954.66;5016106;28;20684;-90
2021/03/31 16:54:28;;;;;;;3.47;3.17;;;;;;;11.12;100.00;96962.00;5016382;28;20187;-91
2021/03/31 16:56:54;;;;;;;5.40;3.90;;;;;;;11.26;100.00;96965.13;5016531;28;20242;-92
2021/03/31 16:59:21;;;;;;;6.10;5.50;;;;;;;11.10;100.00;96952.56;5016305;28;20306;-91
2021/03/31 17:01:48;;;;;;;5.70;4.00;;;;;;;11.22;100.00;96955.84;5016269;28;20275;-93
2021/03/31 17:04:15;;;;;;;6.00;3.83;;;;;;;11.21;100.00;96960.28;5016093;28;20196;-92
2021/03/31 17:06:42;;;;;;;6.80;4.17;;;;;;;11.20;100.00;96956.00;5015955;28;20194;-92
2021/03/31 17:09:09;;;;;;;4.00;3.40;;;;;;;11.02;100.00;96960.38;5017308;28;20686;-92
2021/03/31 17:11:38;;;;;;;5.20;4.43;;;;;;;10.90;100.00;96959.69;5016146;28;21009;-92
2021/03/31 17:14:05;;;;;;;6.00;5.33;;;;;;;10.91;100.00;96961.34;5015843;28;20227;-91
2021/03/31 17:16:32;;;;;;;6.13;5.53;;;;;;;10.87;100.00;96954.72;5015811;28;20295;-92
2021/03/31 17:18:59;;;;;;;5.43;5.03;;;;;;;10.89;100.00;96958.06;5015191;28;20219;-91
2021/03/31 17:21:26;;;;;;;8.83;5.37;;;;;;;11.00;100.00;96947.34;5015709;28;20273;-92
2021/03/31 17:23:52;;;;;;;6.30;5.67;;;;;;;11.06;100.00;96953.84;5016063;28;20207;-92
2021/03/31 17:26:19;;;;;;;5.90;5.30;;;;;;;11.02;100.00;96950.69;5015904;28;20221;-91
2021/03/31 17:28:47;;;;;;;5.53;4.33;;;;;;;10.94;100.00;96953.19;5016091;28;20278;-92
2021/03/31 17:31:14;;;;;;;4.80;3.97;;;;;;;10.87;100.00;96954.72;5015660;28;20741;-91
2021/03/31 17:33:42;;;;;;;5.00;3.80;;;;;;;10.59;100.00;96954.66;5015855;28;20667;-92
2021/03/31 17:36:09;;;;;;;4.80;4.40;;;;;;;10.59;100.00;96951.22;5015460;28;20191;-92
2021/03/31 17:38:36;;;;;;;5.03;4.50;;;;;;;10.57;100.00;96955.81;5015342;28;20232;-94
2021/03/31 17:41:02;;;;;;;5.27;4.77;;;;;;;10.58;100.00;96963.53;5015260;28;20656;-94
2021/03/31 17:43:29;;;;;;;5.47;4.97;;;;;;;10.61;100.00;96962.44;5015680;28;20230;-91
2021/03/31 17:45:57;;;;;;;5.50;4.43;;;;;;;10.73;100.00;96965.72;5015389;28;20211;-92
2021/03/31 17:48:26;;;;;;;5.40;4.90;;;;;;;10.55;100.00;96965.63;5015343;28;20207;-92
2021/03/31 17:50:53;;;;;;;6.87;6.17;;;;;;;10.67;100.00;96961.88;5015348;28;20191;-93
2021/03/31 17:53:22;;;;;;;10.00;9.00;;;;;;;10.64;100.00;96960.34;5015148;28;20223;-93
2021/03/31 17:55:49;;;;;;;13.13;11.47;;;;;;;10.42;100.00;96971.16;5014389;28;20207;-94
2021/03/31 17:58:16;;;;;;;9.73;8.73;;;;;;;10.01;100.00;96962.59;5015390;28;20613;-95
2021/03/31 18:00:44;;;;;;;25.53;18.60;;;;;;;9.57;100.00;96966.56;5014880;28;20684;-94
2021/03/31 18:03:12;;;;;;;8.07;7.33;;;;;;;9.36;100.00;96964.00;5014273;28;20199;-95
2021/03/31 18:05:39;;;;;;;11.30;10.20;;;;;;;9.24;100.00;96961.47;5014975;28;20215;-95
2021/03/31 18:08:06;;;;;;;15.73;11.93;;;;;;;9.09;100.00;96960.19;5016661;28;20207;-93
2021/03/31 18:47:51;;;;;;;17.07;12.43;;;;;;;8.16;100.00;96945.31;4982258;28;20223;-93
